createdAt,value
2022-08-12T00:02:02.691Z,729.90
2022-08-12T00:04:23.937Z,731.87
2022-08-12T00:06:50.374Z,732.13
2022-08-12T00:09:16.843Z,741.03
2022-08-12T00:11:43.306Z,731.60
2022-08-12T00:14:09.767Z,733.53
2022-08-12T00:16:36.196Z,729.83
2022-08-12T00:19:02.672Z,730.47
2022-08-12T00:21:29.119Z,729.87
2022-08-12T00:23:55.575Z,736.63
2022-08-12T00:26:24.552Z,733.53
2022-08-12T00:28:51.184Z,740.03
2022-08-12T00:31:20.653Z,732.83
2022-08-12T00:33:51.646Z,736.03
2022-08-12T00:36:34.840Z,733.30
2022-08-12T00:39:03.020Z,738.20
2022-08-12T00:41:29.485Z,734.97
2022-08-12T00:43:56.093Z,729.57
2022-08-12T00:46:22.832Z,726.07
2022-08-12T00:48:49.344Z,737.30
2022-08-12T00:51:15.798Z,727.93
2022-08-12T00:53:42.749Z,735.03
2022-08-12T00:56:09.193Z,736.10
2022-08-12T00:58:35.626Z,730.17
2022-08-12T01:01:02.113Z,730.43
2022-08-12T01:03:28.595Z,726.13
2022-08-12T01:05:55.190Z,727.23
2022-08-12T01:08:21.638Z,722.50
2022-08-12T01:10:48.107Z,726.97
2022-08-12T01:13:19.226Z,722.60
2022-08-12T01:15:46.586Z,718.47
2022-08-12T01:18:13.019Z,718.97
2022-08-12T01:20:39.481Z,723.07
2022-08-12T01:23:05.954Z,726.23
2022-08-12T01:25:32.410Z,733.70
2022-08-12T01:27:58.849Z,737.03
2022-08-12T01:30:25.324Z,733.23
2022-08-12T01:32:51.757Z,733.83
2022-08-12T01:35:18.225Z,736.90
2022-08-12T01:37:44.683Z,734.13
2022-08-12T01:40:33.231Z,730.43
2022-08-12T01:42:57.616Z,737.60
2022-08-12T01:45:24.066Z,729.77
2022-08-12T01:47:50.518Z,732.17
2022-08-12T01:50:16.962Z,740.03
2022-08-12T01:52:43.400Z,737.37
2022-08-12T01:55:09.862Z,731.77
2022-08-12T01:57:57.852Z,729.80
2022-08-12T02:00:22.719Z,729.73
2022-08-12T02:03:02.580Z,738.13
2022-08-12T02:05:29.064Z,737.53
2022-08-12T02:07:59.649Z,744.00
2022-08-12T02:10:50.720Z,736.90
2022-08-12T02:13:12.589Z,739.43
2022-08-12T02:15:39.082Z,746.13
2022-08-12T02:18:05.547Z,747.90
2022-08-12T02:20:35.338Z,746.00
2022-08-12T02:23:18.662Z,746.50
2022-08-12T02:25:45.127Z,747.93
2022-08-12T02:28:11.593Z,748.93
2022-08-12T02:30:41.215Z,748.63
2022-08-12T02:33:10.779Z,747.73
2022-08-12T02:35:37.224Z,741.57
2022-08-12T02:38:03.784Z,746.43
2022-08-12T02:40:30.266Z,743.57
2022-08-12T02:42:56.709Z,749.13
2022-08-12T02:45:23.204Z,739.17
2022-08-12T02:47:55.859Z,746.70
2022-08-12T02:50:26.888Z,740.50
2022-08-12T02:52:53.340Z,740.20
2022-08-12T02:55:28.658Z,738.10
2022-08-12T02:58:06.747Z,734.90
2022-08-12T03:00:35.650Z,742.90
2022-08-12T03:03:02.132Z,739.73
2022-08-12T03:05:28.608Z,743.83
2022-08-12T03:07:59.151Z,737.00
2022-08-12T03:10:36.932Z,747.07
2022-08-12T03:13:03.944Z,742.07
2022-08-12T03:15:30.425Z,748.03
2022-08-12T03:18:24.542Z,746.23
2022-08-12T03:20:43.413Z,743.23
2022-08-12T03:23:09.867Z,745.90
2022-08-12T03:25:44.081Z,741.17
2022-08-12T03:28:10.555Z,748.37
2022-08-12T03:30:54.761Z,744.70
2022-08-12T03:33:23.049Z,746.03
2022-08-12T03:35:49.512Z,748.97
2022-08-12T03:38:16.027Z,750.93
2022-08-12T03:40:42.557Z,748.87
2022-08-12T03:43:09.052Z,746.80
2022-08-12T03:45:51.509Z,743.13
2022-08-12T03:48:19.518Z,746.07
2022-08-12T03:50:46.057Z,753.67
2022-08-12T03:53:12.506Z,751.83
2022-08-12T03:55:38.962Z,747.43
2022-08-12T03:58:05.397Z,741.53
2022-08-12T04:00:31.872Z,753.23
2022-08-12T04:02:58.364Z,751.57
2022-08-12T04:05:24.843Z,753.77
2022-08-12T04:08:11.297Z,734.63
2022-08-12T04:10:37.728Z,734.17
2022-08-12T04:13:04.206Z,741.03
2022-08-12T04:15:30.678Z,741.30
2022-08-12T04:18:06.876Z,742.80
2022-08-12T04:20:34.411Z,742.40
2022-08-12T04:23:00.879Z,739.47
2022-08-12T04:25:27.341Z,745.10
2022-08-12T04:27:53.789Z,745.27
2022-08-12T04:30:32.653Z,750.10
2022-08-12T04:32:59.971Z,746.63
2022-08-12T04:35:26.415Z,750.30
2022-08-12T04:37:59.813Z,748.93
2022-08-12T04:40:28.476Z,745.07
2022-08-12T04:42:55.316Z,747.97
2022-08-12T04:45:22.434Z,746.30
2022-08-12T04:47:49.244Z,740.33
2022-08-12T04:50:34.935Z,740.03
2022-08-12T04:53:02.161Z,748.83
2022-08-12T04:55:28.610Z,745.17
2022-08-12T04:57:55.041Z,743.03
2022-08-12T05:00:21.496Z,740.50
2022-08-12T05:02:48.222Z,747.37
2022-08-12T05:05:14.712Z,739.67
2022-08-12T05:07:54.546Z,745.13
2022-08-12T05:10:21.634Z,746.20
2022-08-12T05:13:00.577Z,743.07
2022-08-12T05:15:29.214Z,742.90
2022-08-12T05:17:56.196Z,748.83
2022-08-12T05:20:26.388Z,747.80
2022-08-12T05:22:57.084Z,744.13
2022-08-12T05:25:24.662Z,747.63
2022-08-12T05:27:55.571Z,750.30
2022-08-12T05:30:25.729Z,746.20
2022-08-12T05:32:53.791Z,753.53
2022-08-12T05:35:21.734Z,748.03
2022-08-12T05:37:49.048Z,728.27
2022-08-12T05:40:15.508Z,734.50
2022-08-12T05:42:42.146Z,738.27
2022-08-12T05:45:08.933Z,749.10
2022-08-12T05:47:53.092Z,744.20
2022-08-12T05:50:20.665Z,747.13
2022-08-12T05:52:48.147Z,752.57
2022-08-12T05:55:15.030Z,749.63
2022-08-12T05:57:41.493Z,748.20
2022-08-12T06:00:07.980Z,751.73
2022-08-12T06:02:34.510Z,742.30
2022-08-12T06:05:01.020Z,750.10
2022-08-12T06:08:00.076Z,751.93
2022-08-12T06:10:14.034Z,742.47
2022-08-12T06:12:40.746Z,752.23
2022-08-12T06:15:07.288Z,753.17
2022-08-12T06:17:33.756Z,752.83
2022-08-12T06:20:28.418Z,751.73
2022-08-12T06:22:46.627Z,747.03
2022-08-12T06:25:17.520Z,754.93
2022-08-12T06:28:06.407Z,748.57
2022-08-12T06:30:37.985Z,740.03
2022-08-12T06:33:20.951Z,744.80
2022-08-12T06:35:49.901Z,739.00
2022-08-12T06:38:16.789Z,749.50
2022-08-12T06:40:43.259Z,746.70
2022-08-12T06:43:09.728Z,748.20
2022-08-12T06:45:46.283Z,748.30
2022-08-12T06:48:13.432Z,749.90
2022-08-12T06:50:40.287Z,738.97
2022-08-12T06:53:06.827Z,739.43
2022-08-12T06:55:33.268Z,751.50
2022-08-12T06:58:08.150Z,745.23
2022-08-12T07:00:36.768Z,748.53
2022-08-12T07:03:22.557Z,749.70
2022-08-12T07:05:50.894Z,746.43
2022-08-12T07:08:17.568Z,738.43
2022-08-12T07:10:44.027Z,743.37
2022-08-12T07:13:10.483Z,748.37
2022-08-12T07:15:36.948Z,743.10
2022-08-12T07:18:03.421Z,746.60
2022-08-12T07:20:51.269Z,746.83
2022-08-12T07:23:16.444Z,739.10
2022-08-12T07:25:42.900Z,745.73
2022-08-12T07:28:16.817Z,751.10
2022-08-12T07:30:43.725Z,749.77
2022-08-12T07:33:10.206Z,744.50
2022-08-12T07:35:36.656Z,742.20
2022-08-12T07:38:03.127Z,746.23
2022-08-12T07:40:29.625Z,738.90
2022-08-12T07:42:56.055Z,750.50
2022-08-12T07:45:22.508Z,749.53
2022-08-12T07:47:48.966Z,738.30
2022-08-12T07:50:17.848Z,740.10
2022-08-12T07:52:47.992Z,740.70
2022-08-12T07:55:14.449Z,753.43
2022-08-12T07:57:40.881Z,747.63
2022-08-12T08:00:07.351Z,746.23
2022-08-12T08:02:33.936Z,742.97
2022-08-12T08:05:00.544Z,740.83
2022-08-12T08:07:27.008Z,749.90
2022-08-12T08:09:59.248Z,742.90
2022-08-12T08:12:26.064Z,749.33
2022-08-12T08:14:52.534Z,744.60
2022-08-12T08:17:19.009Z,753.03
2022-08-12T08:20:02.044Z,751.47
2022-08-12T08:22:41.416Z,745.40
2022-08-12T08:25:34.569Z,752.43
2022-08-12T08:27:55.081Z,750.77
2022-08-12T08:30:21.578Z,752.67
2022-08-12T08:32:48.049Z,749.87
2022-08-12T08:35:14.507Z,749.97
2022-08-12T08:37:41.155Z,732.97
2022-08-12T08:40:07.875Z,739.60
2022-08-12T08:42:34.322Z,729.83
2022-08-12T08:45:00.768Z,684.67
2022-08-12T08:47:27.234Z,650.53
2022-08-12T08:49:53.695Z,652.40
2022-08-12T08:52:45.500Z,650.97
2022-08-12T08:55:06.676Z,645.87
2022-08-12T08:57:43.563Z,653.77
2022-08-12T09:00:10.970Z,681.43
2022-08-12T09:02:42.332Z,696.97
2022-08-12T09:05:25.512Z,706.17
2022-08-12T09:08:11.944Z,720.07
2022-08-12T09:10:38.783Z,721.10
2022-08-12T09:13:23.167Z,718.93
2022-08-12T09:18:41.874Z,722.50
2022-08-12T09:21:08.327Z,727.80
2022-08-12T09:23:58.791Z,731.33
2022-08-12T09:26:21.836Z,732.57
2022-08-12T09:28:54.944Z,734.07
2022-08-12T09:32:07.526Z,730.77
2022-08-12T09:34:28.033Z,733.23
2022-08-12T09:37:00.585Z,731.67
2022-08-12T09:40:00.663Z,727.70
2022-08-12T09:42:33.883Z,733.07
2022-08-12T09:45:17.801Z,736.83
2022-08-12T09:47:45.975Z,734.70
2022-08-12T09:50:25.825Z,732.30
2022-08-12T09:52:54.396Z,744.83
2022-08-12T09:56:05.674Z,734.83
2022-08-12T09:58:55.760Z,736.80
2022-08-12T10:00:56.263Z,734.53
2022-08-12T10:03:32.174Z,732.47
2022-08-12T10:06:27.271Z,728.17
2022-08-12T10:08:49.666Z,736.50
2022-08-12T10:11:20.254Z,733.10
2022-08-12T10:13:47.259Z,730.50
2022-08-12T10:16:21.996Z,727.33
2022-08-12T10:18:51.651Z,732.73
2022-08-12T10:21:18.893Z,742.57
2022-08-12T10:23:45.979Z,739.00
2022-08-12T10:26:36.558Z,743.97
2022-08-12T10:29:01.731Z,739.27
2022-08-12T10:31:29.519Z,744.30
2022-08-12T10:34:16.037Z,732.07
2022-08-12T10:36:52.848Z,734.87
2022-08-12T10:39:44.287Z,747.00
2022-08-12T10:42:05.820Z,746.67
2022-08-12T10:44:32.342Z,746.17
2022-08-12T10:47:01.616Z,745.93
2022-08-12T10:50:06.896Z,742.53
2022-08-12T10:52:37.779Z,738.30
2022-08-12T10:55:06.784Z,738.07
2022-08-12T10:58:13.190Z,749.60
2022-08-12T11:00:31.207Z,744.27
2022-08-12T11:04:25.901Z,751.80
2022-08-12T11:07:06.103Z,750.50
2022-08-12T11:08:42.169Z,753.97
2022-08-12T11:11:13.796Z,747.17
2022-08-12T11:13:46.737Z,748.23
2022-08-12T11:16:21.666Z,748.83
2022-08-12T11:18:54.959Z,747.70
2022-08-12T11:21:22.439Z,753.90
2022-08-12T11:24:08.863Z,753.30
2022-08-12T11:29:26.752Z,751.40
2022-08-12T11:31:58.852Z,754.67
2022-08-12T11:34:53.584Z,753.20
2022-08-12T11:37:25.782Z,754.67
2022-08-12T11:42:33.264Z,755.73
2022-08-12T11:44:59.745Z,750.90
2022-08-12T11:47:26.174Z,752.60
2022-08-12T11:49:52.642Z,746.73
2022-08-12T11:53:56.387Z,713.17
2022-08-12T11:55:05.515Z,675.77
2022-08-12T11:58:18.384Z,658.33
2022-08-12T12:03:04.899Z,652.60
2022-08-12T12:05:41.675Z,660.80
2022-08-12T12:08:37.669Z,655.40
2022-08-12T12:10:59.366Z,641.87
2022-08-12T12:14:07.783Z,656.17
2022-08-12T12:16:12.397Z,651.60
2022-08-12T12:18:38.833Z,652.20
2022-08-12T12:21:05.541Z,649.00
2022-08-12T12:23:36.349Z,646.17
2022-08-12T12:26:08.273Z,641.60
2022-08-12T12:28:37.753Z,649.33
2022-08-12T12:31:04.863Z,660.23
2022-08-12T12:33:56.746Z,659.43
2022-08-12T12:36:29.802Z,642.63
2022-08-12T12:38:57.147Z,652.40
2022-08-12T12:42:40.664Z,651.13
2022-08-12T12:44:13.494Z,652.23
2022-08-12T12:46:52.010Z,654.87
2022-08-12T12:49:21.285Z,641.27
2022-08-12T12:52:18.356Z,649.30
2022-08-12T12:54:39.397Z,641.70
2022-08-12T12:57:06.736Z,642.83
2022-08-12T12:59:57.004Z,654.13
2022-08-12T13:02:31.493Z,645.63
2022-08-12T13:04:58.437Z,646.23
2022-08-12T13:07:54.160Z,646.13
2022-08-12T13:10:11.354Z,655.40
2022-08-12T13:12:39.954Z,648.00
2022-08-12T13:15:06.596Z,647.50
2022-08-12T13:18:00.840Z,652.50
2022-08-12T13:20:37.126Z,644.70
2022-08-12T13:23:07.136Z,634.43
2022-08-12T13:25:51.482Z,636.63
2022-08-12T13:28:19.369Z,643.80
2022-08-12T13:30:48.369Z,645.00
2022-08-12T13:33:18.481Z,638.90
2022-08-12T13:36:05.091Z,628.73
2022-08-12T13:38:34.836Z,636.30
2022-08-12T13:41:01.896Z,637.50
2022-08-12T13:43:41.253Z,636.90
2022-08-12T13:46:08.236Z,639.30
2022-08-12T13:48:38.910Z,655.00
2022-08-12T13:51:11.322Z,635.97
2022-08-12T13:53:40.288Z,639.10
2022-08-12T13:56:24.215Z,641.57
2022-08-12T13:58:52.538Z,653.90
2022-08-12T14:01:19.298Z,653.57
2022-08-12T14:03:51.383Z,639.97
2022-08-12T14:06:18.307Z,642.57
2022-08-12T14:08:45.160Z,642.30
2022-08-12T14:11:16.512Z,651.10
2022-08-12T14:14:04.123Z,650.53
2022-08-12T14:16:37.577Z,644.40
2022-08-12T14:19:22.790Z,649.83
2022-08-12T14:21:59.124Z,644.67
2022-08-12T14:24:27.181Z,655.50
2022-08-12T14:26:57.148Z,648.03
2022-08-12T14:29:56.233Z,642.20
2022-08-12T14:32:16.823Z,637.43
2022-08-12T14:34:44.131Z,657.30
2022-08-12T14:37:12.817Z,656.00
2022-08-12T14:39:39.785Z,661.90
2022-08-12T14:42:06.291Z,660.33
2022-08-12T14:44:59.978Z,654.93
2022-08-12T14:47:19.508Z,642.20
2022-08-12T14:50:34.027Z,660.50
2022-08-12T14:53:13.391Z,647.00
2022-08-12T14:58:06.926Z,653.67
2022-08-12T15:00:33.552Z,649.77
2022-08-12T15:03:01.355Z,648.97
2022-08-12T15:06:06.041Z,645.57
2022-08-12T15:08:14.221Z,654.57
2022-08-12T15:10:53.968Z,644.07
2022-08-12T15:13:20.640Z,654.50
2022-08-12T15:15:47.776Z,644.00
2022-08-12T15:18:14.216Z,648.13
2022-08-12T15:20:40.679Z,652.50
2022-08-12T15:23:18.047Z,652.00
2022-08-12T15:25:47.821Z,658.13
2022-08-12T15:28:21.208Z,658.90
2022-08-12T15:30:48.061Z,639.23
2022-08-12T15:33:18.748Z,656.73
2022-08-12T15:35:52.173Z,649.23
2022-08-12T15:38:21.011Z,659.23
2022-08-12T15:40:48.439Z,653.13
2022-08-12T15:43:15.176Z,634.30
2022-08-12T15:46:01.609Z,651.37
2022-08-12T15:48:30.463Z,657.53
2022-08-12T15:50:57.047Z,642.10
2022-08-12T15:53:23.586Z,644.70
2022-08-12T15:55:53.565Z,659.80
2022-08-12T15:58:27.121Z,658.33
2022-08-12T16:00:53.683Z,653.20
2022-08-12T16:03:25.795Z,653.33
2022-08-12T16:06:12.414Z,657.30
2022-08-12T16:08:38.758Z,657.93
2022-08-12T16:11:07.284Z,653.13
2022-08-12T16:13:44.198Z,663.30
2022-08-12T16:16:22.463Z,662.63
2022-08-12T16:18:49.797Z,661.80
2022-08-12T16:21:52.844Z,662.43
2022-08-12T16:24:02.665Z,649.10
2022-08-12T16:26:32.490Z,660.53
2022-08-12T16:29:15.519Z,656.67
2022-08-12T16:31:42.760Z,660.37
2022-08-12T16:34:10.672Z,654.43
2022-08-12T16:36:37.414Z,656.57
2022-08-12T16:39:05.643Z,654.77
2022-08-12T16:41:38.071Z,661.63
2022-08-12T16:44:06.676Z,686.40
2022-08-12T16:46:35.026Z,691.97
2022-08-12T16:49:04.263Z,672.53
2022-08-12T16:51:40.469Z,687.40
2022-08-12T16:54:12.756Z,656.37
2022-08-12T16:56:54.750Z,664.63
2022-08-12T16:59:24.108Z,666.17
2022-08-12T17:01:51.698Z,658.67
2022-08-12T17:04:18.480Z,656.63
2022-08-12T17:06:45.028Z,665.00
2022-08-12T17:09:17.022Z,662.77
2022-08-12T17:11:44.579Z,657.03
2022-08-12T17:14:11.056Z,657.20
2022-08-12T17:16:38.322Z,667.50
2022-08-12T17:19:09.233Z,663.80
2022-08-12T17:22:01.198Z,659.90
2022-08-12T17:24:30.513Z,662.20
2022-08-12T17:26:57.284Z,664.17
2022-08-12T17:30:01.355Z,665.27
2022-08-12T17:32:11.493Z,668.73
2022-08-12T17:34:38.656Z,668.23
2022-08-12T17:37:05.627Z,656.57
2022-08-12T17:40:15.016Z,662.67
2022-08-12T17:42:32.816Z,665.00
2022-08-12T17:45:01.605Z,654.03
2022-08-12T17:47:35.586Z,662.30
2022-08-12T17:50:04.510Z,661.53
2022-08-12T17:52:33.259Z,653.00
2022-08-12T17:55:00.063Z,656.63
2022-08-12T17:57:26.588Z,661.27
2022-08-12T17:59:53.101Z,672.43
2022-08-12T18:02:25.476Z,664.30
2022-08-12T18:05:05.845Z,646.93
2022-08-12T18:07:36.811Z,653.23
2022-08-12T18:10:05.829Z,664.10
2022-08-12T18:12:42.724Z,663.23
2022-08-12T18:15:27.014Z,645.43
2022-08-12T18:18:01.754Z,633.13
2022-08-12T18:20:29.043Z,652.30
2022-08-12T18:22:56.280Z,659.43
2022-08-12T18:26:13.237Z,654.07
2022-08-12T18:28:16.680Z,647.10
2022-08-12T18:30:53.034Z,657.87
2022-08-12T18:33:20.976Z,652.23
2022-08-12T18:35:53.303Z,650.13
2022-08-12T18:38:21.861Z,657.77
2022-08-12T18:40:48.604Z,654.50
2022-08-12T18:43:15.491Z,653.83
2022-08-12T18:45:47.176Z,653.63
2022-08-12T18:48:23.804Z,659.20
2022-08-12T18:50:50.307Z,661.60
2022-08-12T18:53:30.925Z,652.03
2022-08-12T18:56:03.283Z,649.23
2022-08-12T18:58:30.392Z,659.53
2022-08-12T19:00:57.300Z,656.83
2022-08-12T19:03:38.926Z,658.03
2022-08-12T19:06:06.512Z,647.67
2022-08-12T19:08:33.010Z,650.67
2022-08-12T19:10:59.461Z,651.70
2022-08-12T19:13:27.088Z,665.23
2022-08-12T19:16:01.660Z,660.90
2022-08-12T19:18:29.728Z,663.87
2022-08-12T19:20:57.181Z,651.00
2022-08-12T19:23:24.924Z,661.13
2022-08-12T19:26:02.676Z,657.43
2022-08-12T19:28:34.665Z,659.07
2022-08-12T19:31:02.705Z,659.37
2022-08-12T19:33:29.361Z,656.53
2022-08-12T19:36:24.090Z,666.93
2022-08-12T19:38:46.994Z,654.83
2022-08-12T19:41:23.409Z,642.87
2022-08-12T19:44:18.462Z,658.17
2022-08-12T19:46:52.902Z,648.47
2022-08-12T19:49:19.751Z,658.73
2022-08-12T19:51:48.854Z,650.97
2022-08-12T19:54:15.291Z,661.43
2022-08-12T19:56:41.842Z,651.67
2022-08-12T19:59:10.298Z,654.97
2022-08-12T20:02:01.462Z,627.90
2022-08-12T20:04:24.108Z,645.63
2022-08-12T20:06:51.575Z,651.37
2022-08-12T20:09:20.005Z,662.43
2022-08-12T20:12:13.148Z,654.53
2022-08-12T20:14:34.759Z,657.23
2022-08-12T20:17:02.666Z,661.03
2022-08-12T20:20:05.463Z,661.93
2022-08-12T20:22:16.774Z,646.53
2022-08-12T20:24:51.472Z,650.67
2022-08-12T20:27:29.783Z,662.23
2022-08-12T20:30:08.439Z,652.97
2022-08-12T20:32:37.576Z,660.87
2022-08-12T20:35:19.706Z,650.93
2022-08-12T20:38:06.263Z,661.80
2022-08-12T20:40:34.597Z,658.13
2022-08-12T20:43:04.579Z,664.60
2022-08-12T20:45:50.637Z,654.47
2022-08-12T20:48:19.764Z,652.00
2022-08-12T20:50:53.516Z,667.10
2022-08-12T20:53:28.872Z,653.13
2022-08-12T20:56:07.134Z,660.27
2022-08-12T20:58:33.575Z,663.90
2022-08-12T21:01:00.043Z,659.67
2022-08-12T21:03:26.671Z,662.07
2022-08-12T21:06:12.972Z,648.57
2022-08-12T21:08:40.379Z,644.37
2022-08-12T21:11:06.822Z,651.93
2022-08-12T21:13:39.423Z,654.67
2022-08-12T21:16:10.061Z,661.07
2022-08-12T21:18:36.756Z,658.63
2022-08-12T21:21:04.682Z,666.00
2022-08-12T21:23:38.653Z,663.93
2022-08-12T21:26:05.461Z,655.27
2022-08-12T21:28:32.137Z,665.30
2022-08-12T21:32:35.065Z,662.77
2022-08-12T21:34:07.960Z,651.93
2022-08-12T21:36:34.774Z,658.73
2022-08-12T21:39:01.919Z,653.00
2022-08-12T21:41:45.808Z,650.33
2022-08-12T21:44:23.983Z,657.50
2022-08-12T21:47:03.277Z,655.47
2022-08-12T21:49:54.065Z,647.47
2022-08-12T21:52:17.287Z,660.50
2022-08-12T21:54:43.731Z,656.33
2022-08-12T21:57:10.157Z,654.13
2022-08-12T21:59:39.416Z,660.43
2022-08-12T22:02:05.871Z,651.13
2022-08-12T22:04:32.356Z,650.57
2022-08-12T22:06:59.435Z,663.10
2022-08-12T22:09:25.968Z,653.83
2022-08-12T22:11:58.713Z,653.13
2022-08-12T22:14:26.298Z,659.83
2022-08-12T22:16:53.128Z,645.37
2022-08-12T22:19:19.841Z,658.10
2022-08-12T22:21:52.302Z,668.83
2022-08-12T22:24:26.845Z,656.63
2022-08-12T22:26:56.344Z,646.40
2022-08-12T22:29:23.565Z,672.37
2022-08-12T22:31:49.999Z,662.67
2022-08-12T22:34:18.124Z,668.70
2022-08-12T22:36:45.162Z,656.07
2022-08-12T22:39:12.129Z,671.53
2022-08-12T22:41:42.729Z,665.00
2022-08-12T22:44:09.229Z,670.30
2022-08-12T22:46:36.790Z,669.97
2022-08-12T22:49:03.673Z,657.70
2022-08-12T22:51:59.726Z,669.40
2022-08-12T22:54:36.156Z,660.93
2022-08-12T22:57:03.901Z,660.87
2022-08-12T22:59:51.426Z,655.97
2022-08-12T23:02:16.805Z,634.10
2022-08-12T23:04:43.263Z,653.57
2022-08-12T23:07:09.699Z,653.13
2022-08-12T23:09:48.404Z,662.67
2022-08-12T23:12:22.579Z,664.13
2022-08-12T23:14:51.782Z,650.33
2022-08-12T23:17:35.286Z,658.87
2022-08-12T23:20:04.668Z,650.70
2022-08-12T23:22:36.507Z,648.63
2022-08-12T23:25:03.710Z,652.07
2022-08-12T23:27:44.407Z,655.27
2022-08-12T23:30:18.641Z,651.37
2022-08-12T23:32:46.377Z,650.87
2022-08-12T23:35:22.710Z,651.20
2022-08-12T23:37:53.975Z,653.83
2022-08-12T23:40:22.520Z,655.97
2022-08-12T23:42:51.015Z,653.17
2022-08-12T23:45:20.256Z,661.40
2022-08-12T23:47:56.954Z,659.57
2022-08-12T23:50:24.031Z,663.53
2022-08-12T23:53:00.063Z,656.53
2022-08-12T23:55:29.122Z,662.27
2022-08-12T23:58:22.449Z,655.80
